Time;durP1;ratioP1;P1;durP2;ratioP2;P2;SDS_P1;SDS_P2;PMS_P1;PMS_P2;Temp;Humidity;BMP_temperature;BMP_pressure;BME280_temperature;BME280_humidity;BME280_pressure;Samples;Min_cycle;Max_cycle;Signal;HPM_P1;HPM_P2
2022/04/10 00:02:14;;;;;;;12.63;4.30;;;;;;;13.04;67.98;98845.28;5109539;28;20027;-29
2022/04/10 00:04:39;;;;;;;12.43;4.65;;;;;;;13.21;66.82;98842.38;5128200;28;20034;-35
2022/04/10 00:07:04;;;;;;;13.20;4.65;;;;;;;13.30;66.75;98840.81;5109648;28;20023;-28
2022/04/10 00:09:30;;;;;;;12.95;5.05;;;;;;;13.13;66.84;98818.81;5128154;28;20502;-28
2022/04/10 00:11:55;;;;;;;12.27;4.50;;;;;;;13.28;66.99;98826.88;5128190;28;20479;-29
2022/04/10 00:14:21;;;;;;;10.75;4.63;;;;;;;13.33;66.47;98834.13;5127787;28;20493;-31
2022/04/10 00:16:46;;;;;;;10.93;4.78;;;;;;;13.12;67.02;98833.25;5128297;27;20106;-31
2022/04/10 00:19:12;;;;;;;10.98;4.35;;;;;;;13.23;66.89;98835.66;5131687;27;20083;-31
2022/04/10 00:21:37;;;;;;;8.50;4.28;;;;;;;13.19;66.88;98829.25;5131969;27;20034;-31
2022/04/10 00:24:03;;;;;;;10.93;5.00;;;;;;;13.30;65.78;98818.56;5131542;27;20031;-29
2022/04/10 00:26:28;;;;;;;12.95;4.80;;;;;;;13.06;66.80;98829.78;5131394;27;20027;-29
2022/04/10 00:28:56;;;;;;;10.52;4.80;;;;;;;13.01;67.39;98837.78;5112764;27;20111;-28
2022/04/10 00:31:22;;;;;;;10.18;4.40;;;;;;;12.87;67.92;98837.47;5131528;27;20723;-29
2022/04/10 00:33:47;;;;;;;13.70;4.78;;;;;;;12.98;67.77;98846.34;5131624;27;20038;-28
2022/04/10 00:36:13;;;;;;;13.18;4.63;;;;;;;13.19;66.62;98852.53;5112514;27;20050;-28
2022/04/10 00:38:38;;;;;;;12.77;5.18;;;;;;;13.55;65.34;98847.25;5112694;27;20066;-29
2022/04/10 00:41:04;;;;;;;12.48;4.60;;;;;;;13.73;64.47;98860.09;5131505;27;20027;-28
2022/04/10 00:43:34;;;;;;;7.72;3.88;;;;;;;13.54;64.27;98845.63;5131023;27;20175;-30
2022/04/10 00:46:00;;;;;;;8.45;4.13;;;;;;;13.15;64.22;98871.00;5113000;27;20464;-29
2022/04/10 00:48:26;;;;;;;10.52;4.30;;;;;;;12.98;64.91;98867.75;5112759;27;20030;-28
2022/04/10 00:53:37;;;;;;;11.38;5.50;;;;;;;12.33;67.67;98860.03;5131157;27;20027;-29
2022/04/10 00:56:04;;;;;;;13.05;6.57;;;;;;;12.10;67.93;98852.44;5112184;27;20061;-35
2022/04/10 00:58:30;;;;;;;21.13;8.23;;;;;;;12.30;67.46;98855.22;5112356;27;20498;-30
2022/04/10 01:00:56;;;;;;;16.33;9.05;;;;;;;12.44;67.74;98858.19;5130814;27;20030;-31
2022/04/10 01:03:21;;;;;;;16.42;9.52;;;;;;;12.49;66.93;98836.03;5130913;27;20019;-31
2022/04/10 01:05:47;;;;;;;18.58;9.90;;;;;;;12.35;67.95;98857.88;5130689;27;20115;-29
2022/04/10 01:08:14;;;;;;;17.08;9.07;;;;;;;12.43;67.53;98852.03;5112045;27;20133;-29
2022/04/10 01:10:39;;;;;;;18.58;7.55;;;;;;;12.35;67.92;98849.88;5111866;27;20047;-29
2022/04/10 01:13:05;;;;;;;15.45;7.35;;;;;;;12.58;67.70;98858.53;5131141;27;20050;-29
2022/04/10 01:15:31;;;;;;;11.55;5.90;;;;;;;12.15;69.80;98852.44;5112094;27;20035;-31
2022/04/10 01:17:56;;;;;;;11.82;5.43;;;;;;;12.21;69.95;98830.03;5130933;27;20072;-30
2022/04/10 01:20:22;;;;;;;12.68;4.90;;;;;;;12.41;69.94;98848.03;5111981;27;20079;-29
2022/04/10 01:22:48;;;;;;;10.88;5.10;;;;;;;12.33;70.02;98833.28;5111856;27;20044;-32
2022/04/10 01:25:14;;;;;;;15.20;5.10;;;;;;;12.60;69.31;98853.72;5130292;27;20460;-30
2022/04/10 01:27:41;;;;;;;12.18;4.78;;;;;;;12.63;68.57;98837.16;5130571;27;20515;-32
2022/04/10 01:30:11;;;;;;;11.10;4.35;;;;;;;12.38;69.96;98849.38;5111056;27;20033;-28
2022/04/10 01:32:37;;;;;;;10.07;5.03;;;;;;;12.19;70.23;98842.84;5111657;27;20031;-28
2022/04/10 01:35:04;;;;;;;14.48;5.00;;;;;;;12.20;70.67;98857.81;5111587;27;20037;-29
2022/04/10 01:37:31;;;;;;;13.27;4.90;;;;;;;12.37;69.76;98858.44;5111605;27;20035;-30
2022/04/10 01:39:57;;;;;;;10.07;4.73;;;;;;;12.63;68.31;98869.25;5111597;27;20050;-29
2022/04/10 01:42:23;;;;;;;11.32;5.20;;;;;;;12.70;67.95;98864.44;5129858;27;20716;-30
2022/04/10 01:44:48;;;;;;;10.40;5.20;;;;;;;12.27;69.44;98850.38;5129743;27;20589;-30
2022/04/10 01:47:14;;;;;;;14.60;6.10;;;;;;;12.01;71.18;98862.78;5111465;27;20035;-30
2022/04/10 01:49:39;;;;;;;12.35;5.15;;;;;;;11.65;72.00;98857.16;5129728;27;20019;-32
2022/04/10 01:52:05;;;;;;;12.63;5.07;;;;;;;11.68;72.42;98861.19;5129828;27;20034;-30
2022/04/10 01:54:31;;;;;;;11.02;4.95;;;;;;;11.82;72.10;98862.34;5129202;27;20027;-30
2022/04/10 01:56:57;;;;;;;14.75;5.20;;;;;;;11.88;71.72;98869.34;5129918;27;20034;-28
2022/04/10 01:59:22;;;;;;;11.75;4.72;;;;;;;12.00;70.46;98853.97;5130073;27;20028;-29
2022/04/10 02:01:48;;;;;;;12.45;4.78;;;;;;;12.01;70.71;98854.75;5129743;27;20035;-28
2022/04/10 02:04:14;;;;;;;12.55;5.25;;;;;;;12.18;70.66;98867.97;5129475;27;20027;-28
2022/04/10 02:06:40;;;;;;;11.45;4.88;;;;;;;12.13;71.12;98882.09;5110960;27;20406;-31
2022/04/10 02:09:08;;;;;;;12.30;4.90;;;;;;;12.09;70.18;98872.19;5110849;27;20464;-29
2022/04/10 02:11:34;;;;;;;12.23;5.28;;;;;;;11.84;71.01;98873.59;5110927;27;20487;-29
2022/04/10 02:14:00;;;;;;;13.60;5.63;;;;;;;12.01;70.75;98874.28;5111001;27;20030;-33
2022/04/10 02:16:25;;;;;;;11.70;5.38;;;;;;;11.87;70.93;98851.72;5110512;27;20056;-31
2022/04/10 02:18:51;;;;;;;12.02;5.47;;;;;;;11.56;72.56;98867.47;5110786;27;20055;-31
2022/04/10 02:21:16;;;;;;;16.00;5.15;;;;;;;11.49;73.12;98861.56;5128991;27;20054;-32
2022/04/10 02:23:42;;;;;;;14.05;4.88;;;;;;;11.50;73.68;98852.47;5110607;27;20051;-30
2022/04/10 02:26:11;;;;;;;12.82;6.00;;;;;;;11.43;74.02;98846.56;5129239;27;20138;-29
2022/04/10 02:28:37;;;;;;;13.98;5.22;;;;;;;11.34;73.77;98821.38;5129152;27;20077;-29
2022/04/10 02:31:03;;;;;;;13.95;5.32;;;;;;;11.58;72.76;98825.31;5110581;27;20027;-34
2022/04/10 02:33:28;;;;;;;10.73;5.25;;;;;;;11.38;74.07;98833.16;5128954;27;20117;-28
2022/04/10 02:35:54;;;;;;;13.98;5.35;;;;;;;11.36;73.32;98835.28;5128959;27;20055;-28
2022/04/10 02:38:19;;;;;;;16.17;5.22;;;;;;;11.45;73.35;98834.56;5109844;27;20062;-30
2022/04/10 02:40:45;;;;;;;10.48;4.43;;;;;;;11.64;72.17;98842.97;5128800;27;20035;-29
2022/04/10 02:43:13;;;;;;;11.10;4.57;;;;;;;11.49;73.39;98845.53;5128683;27;20027;-30
2022/04/10 02:45:41;;;;;;;12.88;4.53;;;;;;;11.66;72.29;98845.41;5110077;27;20054;-33
2022/04/10 02:48:07;;;;;;;14.38;5.13;;;;;;;11.83;71.35;98848.75;5110044;27;20475;-32
2022/04/10 02:50:32;;;;;;;11.70;4.45;;;;;;;11.49;71.90;98840.22;5128393;27;20041;-31
2022/04/10 02:52:58;;;;;;;13.27;5.32;;;;;;;11.58;71.28;98841.34;5110453;27;20411;-30
2022/04/10 02:55:23;;;;;;;14.52;5.80;;;;;;;11.76;71.32;98837.47;5128763;27;20047;-28
2022/04/10 02:57:48;;;;;;;12.80;5.05;;;;;;;11.89;70.80;98852.28;5128855;27;20027;-28
2022/04/10 03:00:14;;;;;;;13.05;4.78;;;;;;;11.41;72.38;98833.47;5128536;27;20042;-28
2022/04/10 03:02:40;;;;;;;10.18;4.82;;;;;;;11.41;72.87;98844.13;5128644;27;20031;-29
2022/04/10 03:05:09;;;;;;;13.70;4.60;;;;;;;11.31;73.10;98825.38;5109659;27;20819;-30
2022/04/10 03:07:36;;;;;;;15.43;5.32;;;;;;;11.34;73.17;98838.22;5110119;27;20042;-28
2022/04/10 03:10:02;;;;;;;9.65;4.60;;;;;;;11.48;72.67;98849.25;5109969;28;20042;-28
2022/04/10 03:12:27;;;;;;;12.80;5.05;;;;;;;11.52;72.95;98845.03;5109649;28;20452;-30
2022/04/10 03:14:53;;;;;;;10.20;5.35;;;;;;;11.54;72.82;98853.59;5128575;28;20031;-31
2022/04/10 03:17:18;;;;;;;13.93;4.57;;;;;;;11.62;71.77;98831.75;5128572;28;20033;-31
2022/04/10 03:19:44;;;;;;;13.68;5.43;;;;;;;11.60;72.22;98825.84;5128312;28;20083;-30
2022/04/10 03:22:09;;;;;;;13.15;4.60;;;;;;;11.63;72.31;98844.06;5128220;28;20080;-30
2022/04/10 03:24:35;;;;;;;11.88;4.32;;;;;;;11.61;72.18;98846.19;5128280;28;20406;-29
2022/04/10 03:27:00;;;;;;;13.65;5.07;;;;;;;11.60;71.65;98820.53;5128656;28;20732;-30
2022/04/10 03:29:25;;;;;;;10.52;4.90;;;;;;;11.60;71.63;98815.19;5128469;28;20023;-29
2022/04/10 03:31:51;;;;;;;14.57;6.07;;;;;;;11.65;72.18;98839.25;5128088;28;20023;-36
2022/04/10 03:34:17;;;;;;;13.77;5.03;;;;;;;11.65;71.87;98825.91;5109563;28;20058;-29
2022/04/10 03:36:42;;;;;;;15.27;5.50;;;;;;;11.64;71.75;98800.25;5128427;28;20058;-30
2022/04/10 03:39:08;;;;;;;18.17;5.57;;;;;;;11.70;71.93;98819.78;5128661;28;20035;-28
2022/04/10 03:41:33;;;;;;;13.70;5.05;;;;;;;11.41;72.80;98800.63;5128367;28;20027;-29
2022/04/10 03:43:59;;;;;;;15.38;5.40;;;;;;;11.20;73.95;98797.81;5127962;28;20034;-29
2022/04/10 03:46:26;;;;;;;14.52;5.75;;;;;;;11.36;73.92;98812.09;5109640;28;20138;-29
2022/04/10 03:48:52;;;;;;;11.38;6.05;;;;;;;11.26;73.64;98801.31;5127953;28;20558;-31
2022/04/10 03:51:17;;;;;;;16.50;6.45;;;;;;;11.45;73.16;98807.06;5128655;27;20035;-30
2022/04/10 03:53:43;;;;;;;15.50;5.88;;;;;;;11.32;73.51;98804.81;5112967;27;20034;-29
2022/04/10 03:56:08;;;;;;;15.20;5.53;;;;;;;11.45;73.98;98823.09;5113401;27;20032;-29
2022/04/10 03:58:34;;;;;;;16.27;5.47;;;;;;;11.66;73.83;98835.53;5132217;27;20635;-31
2022/04/10 04:00:59;;;;;;;16.10;5.03;;;;;;;11.74;73.75;98836.13;5132126;27;20023;-30
2022/04/10 04:03:25;;;;;;;15.88;6.05;;;;;;;11.90;73.21;98834.41;5132182;27;20433;-28
2022/04/10 04:05:50;;;;;;;11.40;4.55;;;;;;;12.01;72.68;98836.88;5131739;27;20478;-28
2022/04/10 04:08:16;;;;;;;22.33;18.70;;;;;;;11.95;72.22;98819.22;5113326;27;20392;-29
2022/04/10 04:10:42;;;;;;;18.80;10.52;;;;;;;12.16;72.45;98827.34;5113263;27;20728;-28
2022/04/10 04:13:07;;;;;;;15.25;7.53;;;;;;;12.32;71.53;98804.97;5113425;27;20034;-34
2022/04/10 04:15:33;;;;;;;18.70;8.60;;;;;;;12.32;72.56;98815.66;5113313;27;20076;-30
2022/04/10 04:17:59;;;;;;;35.28;22.85;;;;;;;12.34;72.14;98797.47;5131462;27;20110;-28
2022/04/10 04:20:24;;;;;;;38.72;22.67;;;;;;;12.39;72.25;98821.56;5131260;27;20038;-31
2022/04/10 04:22:50;;;;;;;87.55;58.63;;;;;;;12.57;71.50;98822.16;5131705;27;20023;-29
2022/04/10 04:25:15;;;;;;;23.80;16.40;;;;;;;12.56;71.12;98832.03;5131498;27;20091;-28
2022/04/10 04:27:41;;;;;;;20.27;8.68;;;;;;;12.55;71.58;98816.28;5131385;27;20023;-28
2022/04/10 04:30:07;;;;;;;12.25;6.10;;;;;;;12.57;71.61;98820.28;5131468;27;20110;-31
2022/04/10 04:32:32;;;;;;;14.30;6.40;;;;;;;12.60;72.13;98830.44;5112192;27;20019;-31
2022/04/10 04:34:58;;;;;;;15.70;5.97;;;;;;;12.45;72.97;98809.00;5131645;27;20039;-29
2022/04/10 04:37:23;;;;;;;18.65;5.90;;;;;;;12.53;72.80;98810.38;5131209;27;20778;-29
2022/04/10 04:39:49;;;;;;;12.30;6.53;;;;;;;12.74;72.76;98833.44;5112844;27;20076;-29
2022/04/10 04:42:14;;;;;;;12.88;5.57;;;;;;;12.73;73.25;98849.75;5112379;27;20059;-31
2022/04/10 04:44:40;;;;;;;16.58;6.03;;;;;;;12.63;72.59;98829.94;5131033;27;20030;-32
2022/04/10 04:47:06;;;;;;;13.65;7.05;;;;;;;12.77;72.91;98832.94;5112550;27;20505;-29
2022/04/10 04:49:31;;;;;;;18.17;6.47;;;;;;;13.04;71.99;98842.63;5129708;27;20478;-31
2022/04/10 04:51:56;;;;;;;18.35;9.63;;;;;;;13.09;71.94;98845.28;5131106;27;20528;-28
2022/04/10 04:54:22;;;;;;;18.20;6.35;;;;;;;13.07;72.31;98855.47;5130403;27;20496;-33
2022/04/10 04:56:48;;;;;;;16.80;6.30;;;;;;;13.08;72.64;98854.41;5130099;27;20538;-30
2022/04/10 04:59:14;;;;;;;18.08;7.80;;;;;;;13.00;72.55;98852.25;5130879;27;20027;-31
2022/04/10 05:01:43;;;;;;;19.15;8.73;;;;;;;12.96;72.86;98853.84;5095174;27;20605;-30
2022/04/10 05:04:10;;;;;;;20.08;6.68;;;;;;;13.20;72.46;98865.66;5110420;27;20030;-32
2022/04/10 05:06:35;;;;;;;19.45;6.38;;;;;;;13.20;72.57;98852.28;5112201;27;20031;-30
2022/04/10 05:09:01;;;;;;;14.32;6.07;;;;;;;13.31;72.54;98857.69;5130788;27;20023;-30
2022/04/10 05:11:26;;;;;;;20.02;6.28;;;;;;;13.42;71.57;98848.56;5130777;27;20023;-29
2022/04/10 05:13:52;;;;;;;20.15;7.05;;;;;;;13.64;71.17;98867.84;5130512;27;20032;-29
2022/04/10 05:16:17;;;;;;;15.18;5.72;;;;;;;13.64;70.52;98851.00;5130220;27;20706;-32
2022/04/10 05:18:43;;;;;;;20.77;6.72;;;;;;;13.73;70.38;98848.56;5130580;27;20034;-29
2022/04/10 05:21:08;;;;;;;17.73;7.40;;;;;;;13.69;70.48;98850.19;5129233;27;20784;-32
2022/04/10 05:23:34;;;;;;;16.52;7.03;;;;;;;13.56;71.54;98838.94;5130548;27;20446;-29
2022/04/10 05:25:59;;;;;;;17.17;6.40;;;;;;;13.88;70.57;98851.25;5130287;27;20027;-33
2022/04/10 05:28:25;;;;;;;19.10;6.72;;;;;;;13.71;71.01;98840.00;5130218;27;20471;-32
2022/04/10 05:30:50;;;;;;;23.23;7.05;;;;;;;13.78;70.84;98841.34;5130307;27;20035;-30
2022/04/10 05:33:16;;;;;;;25.83;8.27;;;;;;;13.79;71.18;98852.84;5129915;27;20031;-29
2022/04/10 05:35:42;;;;;;;23.75;7.10;;;;;;;13.92;70.50;98836.22;5130404;27;20059;-30
2022/04/10 05:38:08;;;;;;;16.75;6.97;;;;;;;14.10;69.56;98847.44;5130303;27;20053;-29
2022/04/10 05:40:34;;;;;;;18.75;6.28;;;;;;;14.11;69.68;98854.41;5111701;27;20023;-28
2022/04/10 05:42:59;;;;;;;17.75;6.38;;;;;;;14.38;70.12;98862.91;5130052;27;20687;-30
2022/04/10 05:45:25;;;;;;;17.63;6.25;;;;;;;14.40;68.70;98841.97;5129744;27;20063;-31
2022/04/10 05:47:50;;;;;;;26.08;6.18;;;;;;;14.49;68.80;98860.22;5129619;27;20023;-29
2022/04/10 05:50:16;;;;;;;20.13;5.82;;;;;;;14.75;67.46;98875.16;5129674;27;20384;-29
2022/04/10 05:52:44;;;;;;;17.50;6.72;;;;;;;14.46;68.42;98850.81;5129971;27;20059;-29
2022/04/10 05:55:11;;;;;;;20.42;6.72;;;;;;;14.53;68.38;98861.28;5111201;27;20088;-29
2022/04/10 05:57:37;;;;;;;17.92;5.75;;;;;;;14.73;67.94;98860.41;5111213;27;20035;-29
2022/04/10 06:00:10;;;;;;;14.55;5.70;;;;;;;15.04;67.32;98890.59;5110833;27;20037;-32
2022/04/10 06:02:36;;;;;;;17.05;5.53;;;;;;;14.91;67.21;98869.72;5129655;27;20027;-28
2022/04/10 06:05:03;;;;;;;16.35;5.43;;;;;;;15.04;67.24;98890.59;5111232;27;20470;-31
2022/04/10 06:07:28;;;;;;;15.75;5.90;;;;;;;14.91;69.22;98877.75;5111094;27;20027;-34
2022/04/10 06:09:54;;;;;;;51.42;9.25;;;;;;;14.74;68.19;98857.44;5094187;27;20016;-29
2022/04/10 06:12:19;;;;;;;16.60;7.00;;;;;;;14.90;67.92;98865.44;5129299;27;20418;-29
2022/04/10 06:14:44;;;;;;;15.35;5.75;;;;;;;15.21;67.59;98872.22;5128766;27;20034;-29
2022/04/10 06:17:10;;;;;;;18.77;7.30;;;;;;;15.05;67.95;98879.56;5111015;27;20035;-29
2022/04/10 06:19:35;;;;;;;19.90;6.57;;;;;;;15.15;67.04;98867.97;5129477;27;20042;-32
2022/04/10 06:22:01;;;;;;;24.13;9.18;;;;;;;15.28;67.45;98858.47;5129559;27;20478;-30
2022/04/10 06:24:27;;;;;;;22.55;9.52;;;;;;;15.47;67.55;98883.59;5128890;27;20031;-29
2022/04/10 06:26:56;;;;;;;21.80;7.25;;;;;;;15.56;66.83;98881.09;5129197;27;20035;-30
2022/04/10 06:29:22;;;;;;;21.02;6.80;;;;;;;15.34;67.77;98878.03;5128834;27;20023;-28
2022/04/10 06:31:48;;;;;;;13.95;6.18;;;;;;;15.44;67.34;98881.44;5110633;27;20585;-31
2022/04/10 06:34:14;;;;;;;20.42;6.55;;;;;;;15.49;66.88;98867.19;5110116;27;20023;-29
2022/04/10 06:36:40;;;;;;;20.05;6.63;;;;;;;15.76;66.17;98880.19;5129181;27;20062;-36
2022/04/10 06:39:05;;;;;;;23.88;6.90;;;;;;;15.57;68.26;98877.34;5110392;27;20038;-31
2022/04/10 06:41:31;;;;;;;15.85;5.85;;;;;;;15.41;67.68;98882.03;5129128;27;20406;-32
2022/04/10 06:43:57;;;;;;;18.30;6.85;;;;;;;15.37;68.43;98875.59;5128593;27;20023;-29
2022/04/10 06:46:23;;;;;;;20.60;6.05;;;;;;;15.60;68.01;98863.34;5129304;27;20215;-28
2022/04/10 06:48:49;;;;;;;17.30;5.97;;;;;;;15.92;66.46;98872.00;5128921;27;20023;-33
2022/04/10 06:51:16;;;;;;;13.15;5.82;;;;;;;15.82;67.45;98876.34;5110419;27;20049;-30
2022/04/10 06:53:42;;;;;;;12.07;5.35;;;;;;;15.58;67.50;98852.06;5129041;27;20119;-29
2022/04/10 06:56:08;;;;;;;19.45;5.85;;;;;;;16.14;65.68;98876.84;5110043;27;20517;-38
2022/04/10 06:58:34;;;;;;;17.20;6.45;;;;;;;16.13;66.72;98870.69;5128512;27;20027;-30
2022/04/10 07:00:59;;;;;;;21.27;7.85;;;;;;;16.50;65.45;98884.56;5109894;28;20069;-31
2022/04/10 07:03:25;;;;;;;12.90;5.18;;;;;;;16.66;64.64;98881.41;5128599;27;20027;-29
2022/04/10 07:05:50;;;;;;;18.25;5.75;;;;;;;16.92;63.57;98866.81;5128358;27;20051;-29
2022/04/10 07:08:16;;;;;;;13.95;6.15;;;;;;;16.64;63.87;98874.69;5109752;27;20023;-29
2022/04/10 07:10:41;;;;;;;16.92;6.15;;;;;;;16.77;64.61;98873.19;5128492;27;20038;-39
2022/04/10 07:13:07;;;;;;;24.67;6.63;;;;;;;17.20;63.03;98868.63;5128420;27;20050;-31
2022/04/10 07:15:32;;;;;;;15.60;6.03;;;;;;;17.18;62.06;98873.50;5128035;27;20031;-33
2022/04/10 07:17:58;;;;;;;16.65;6.32;;;;;;;17.71;60.75;98875.06;5128348;28;20755;-30
2022/04/10 07:20:24;;;;;;;13.38;4.95;;;;;;;17.75;60.70;98864.50;5112448;28;20092;-31
2022/04/10 07:25:34;;;;;;;12.10;5.18;;;;;;;17.88;60.96;98866.50;5107495;28;20035;-32
2022/04/10 07:28:00;;;;;;;14.45;5.18;;;;;;;17.74;59.71;98860.22;5109616;28;20028;-30
2022/04/10 07:30:26;;;;;;;12.75;5.13;;;;;;;17.98;59.31;98862.78;5111527;28;20464;-29
2022/04/10 07:32:53;;;;;;;14.65;5.43;;;;;;;17.84;60.00;98863.56;5097192;28;20062;-30
2022/04/10 07:35:19;;;;;;;13.38;4.88;;;;;;;17.99;58.78;98865.19;5092861;28;20046;-30
2022/04/10 07:37:45;;;;;;;28.98;6.85;;;;;;;17.98;59.56;98847.44;5093168;28;20485;-29
2022/04/10 07:40:11;;;;;;;13.10;4.72;;;;;;;18.22;58.98;98851.84;5091931;28;20385;-34
2022/04/10 07:42:43;;;;;;;15.68;5.82;;;;;;;18.39;60.31;98868.25;5111698;28;20031;-33
2022/04/10 07:47:58;;;;;;;18.60;5.60;;;;;;;18.50;58.22;98873.44;5111449;28;20026;-30
2022/04/10 07:50:24;;;;;;;14.55;5.47;;;;;;;18.78;58.10;98860.72;5092840;28;20038;-28
2022/04/10 07:52:49;;;;;;;13.05;5.22;;;;;;;18.90;57.92;98865.63;5110730;28;20039;-29
2022/04/10 07:55:15;;;;;;;20.40;6.03;;;;;;;18.61;58.61;98864.03;5111578;28;20032;-36
2022/04/10 07:57:40;;;;;;;13.68;5.40;;;;;;;18.79;57.94;98848.84;5111371;28;20054;-29
2022/04/10 08:00:06;;;;;;;11.45;4.82;;;;;;;19.07;58.85;98844.97;5092779;28;20038;-28
2022/04/10 08:02:32;;;;;;;14.00;5.88;;;;;;;19.28;57.81;98863.41;5092550;28;20122;-30
2022/04/10 08:04:57;;;;;;;15.57;5.68;;;;;;;18.85;57.53;98853.81;5092710;28;20509;-29
2022/04/10 08:07:23;;;;;;;17.00;5.30;;;;;;;19.19;57.40;98859.84;5111044;28;20057;-31
2022/04/10 08:09:49;;;;;;;16.60;5.35;;;;;;;19.55;56.14;98859.00;5111259;28;20032;-31
2022/04/10 08:12:15;;;;;;;11.60;5.47;;;;;;;19.53;56.18;98853.88;5111023;28;20054;-29
2022/04/10 08:14:40;;;;;;;14.27;6.65;;;;;;;19.41;56.85;98832.84;5092549;28;20059;-32
2022/04/10 08:17:09;;;;;;;16.63;5.75;;;;;;;19.41;56.82;98846.34;5111507;28;20024;-29
2022/04/10 08:19:35;;;;;;;20.00;8.10;;;;;;;19.23;56.68;98847.34;5098276;27;20032;-32
2022/04/10 08:22:00;;;;;;;13.48;5.57;;;;;;;19.43;56.33;98851.44;5096578;28;20059;-30
2022/04/10 08:24:26;;;;;;;17.67;5.57;;;;;;;19.79;56.32;98845.19;5092240;28;20103;-28
2022/04/10 08:26:51;;;;;;;14.45;4.45;;;;;;;19.55;55.26;98826.56;5110739;28;20028;-32
2022/04/10 08:29:17;;;;;;;16.45;4.75;;;;;;;20.12;55.30;98834.03;5092485;28;20023;-31
2022/04/10 08:31:42;;;;;;;17.30;5.28;;;;;;;19.81;55.71;98829.44;5110887;28;20019;-30
2022/04/10 08:34:08;;;;;;;15.18;4.57;;;;;;;19.38;56.48;98835.34;5092282;28;20049;-28
2022/04/10 08:36:35;;;;;;;11.88;4.50;;;;;;;19.49;56.06;98839.38;5110091;28;20051;-35
2022/04/10 08:39:00;;;;;;;17.20;4.90;;;;;;;19.35;56.18;98834.06;5110326;28;20074;-29
2022/04/10 08:41:31;;;;;;;20.17;5.32;;;;;;;19.39;56.12;98834.22;5091991;28;20035;-29
2022/04/10 08:44:01;;;;;;;18.63;6.18;;;;;;;19.52;56.34;98843.41;5110186;28;20015;-33
2022/04/10 08:46:26;;;;;;;17.17;5.13;;;;;;;19.31;56.11;98860.13;5091858;28;20036;-29
2022/04/10 08:48:55;;;;;;;15.00;5.70;;;;;;;19.25;57.02;98858.63;5110073;28;20088;-35
2022/04/10 08:51:23;;;;;;;18.30;5.28;;;;;;;19.51;55.46;98848.00;5110450;28;20035;-33
2022/04/10 08:53:49;;;;;;;;;;;;;;;19.57;55.08;98863.00;5092297;28;20024;-31
2022/04/10 08:56:14;;;;;;;11.15;5.25;;;;;;;19.33;55.37;98847.09;5110094;28;19931;-29
2022/04/10 08:58:40;;;;;;;13.43;4.35;;;;;;;19.60;56.04;98846.16;5109887;28;20051;-34
2022/04/10 09:01:09;;;;;;;18.65;4.47;;;;;;;19.96;54.43;98864.25;5110159;28;20031;-31
2022/04/10 09:03:34;;;;;;;13.60;5.45;;;;;;;19.72;53.52;98864.56;5109713;28;20055;-28
2022/04/10 09:06:05;;;;;;;13.05;4.72;;;;;;;19.92;54.27;98884.91;5109991;28;20062;-30
2022/04/10 09:08:32;;;;;;;15.25;4.93;;;;;;;19.58;54.46;98886.22;5091404;28;20042;-28
2022/04/10 09:11:06;;;;;;;17.50;5.63;;;;;;;19.47;56.57;98879.47;5091528;28;20024;-35
2022/04/10 09:13:51;;;;;;;11.43;4.85;;;;;;;19.80;55.03;98887.38;5091355;28;20560;-29
2022/04/10 09:16:24;;;;;;;16.80;5.32;;;;;;;19.54;56.62;98892.56;5109855;28;20023;-32
2022/04/10 09:18:49;;;;;;;13.13;4.55;;;;;;;18.79;57.84;98870.44;5091472;28;20026;-28
2022/04/10 09:21:17;;;;;;;20.95;8.77;;;;;;;18.54;59.35;98883.34;5109901;28;20023;-36
2022/04/10 09:23:46;;;;;;;17.10;9.23;;;;;;;18.01;61.44;98856.81;5090825;28;20457;-31
2022/04/10 09:26:13;;;;;;;16.70;7.80;;;;;;;18.04;62.35;98870.50;5090147;28;20500;-30
2022/04/10 09:28:49;;;;;;;22.27;8.85;;;;;;;17.82;62.68;98860.34;5091000;28;20035;-28
2022/04/10 09:31:24;;;;;;;18.13;7.35;;;;;;;17.55;62.67;98855.69;5109676;28;20054;-29
2022/04/10 09:33:50;;;;;;;20.17;9.15;;;;;;;17.41;63.31;98835.97;5090899;28;20044;-29
2022/04/10 09:36:40;;;;;;;23.60;10.00;;;;;;;17.71;62.37;98847.31;5090784;28;20058;-31
2022/04/10 09:39:10;;;;;;;22.65;8.20;;;;;;;17.87;63.48;98840.59;5109049;28;20028;-31
2022/04/10 09:41:37;;;;;;;25.80;12.82;;;;;;;18.09;61.44;98850.72;5109505;28;20063;-28
2022/04/10 09:44:21;;;;;;;27.13;15.50;;;;;;;18.02;61.43;98859.22;5109170;28;20043;-29
2022/04/10 09:46:59;;;;;;;22.40;10.65;;;;;;;17.70;63.48;98856.53;5109204;28;20031;-29
2022/04/10 09:49:30;;;;;;;22.80;9.53;;;;;;;17.50;63.30;98854.97;5089877;28;20476;-30
2022/04/10 09:52:21;;;;;;;20.65;10.57;;;;;;;17.42;64.75;98851.03;5090662;28;20023;-30
2022/04/10 09:54:50;;;;;;;21.55;10.00;;;;;;;17.46;65.09;98852.84;5090642;28;20024;-29
2022/04/10 09:57:17;;;;;;;20.88;8.68;;;;;;;17.44;65.04;98833.47;5090548;28;20384;-31
2022/04/10 09:59:47;;;;;;;19.73;9.10;;;;;;;17.77;63.90;98840.75;5090435;28;20024;-29
2022/04/10 10:02:21;;;;;;;19.17;10.05;;;;;;;17.63;64.75;98846.91;5090372;28;20037;-28
2022/04/10 10:04:48;;;;;;;20.30;8.48;;;;;;;17.67;63.29;98826.38;5108770;28;20031;-32
2022/04/10 10:07:20;;;;;;;18.53;8.13;;;;;;;17.46;63.81;98807.00;5090525;28;20027;-28
2022/04/10 10:09:48;;;;;;;17.92;7.72;;;;;;;17.97;62.94;98815.34;5108744;28;20030;-30
2022/04/10 10:12:14;;;;;;;15.93;7.28;;;;;;;18.27;61.52;98843.66;5089892;28;20049;-28
2022/04/10 10:14:40;;;;;;;18.05;7.30;;;;;;;18.61;61.33;98842.41;5108779;28;20031;-28
2022/04/10 10:17:08;;;;;;;17.30;6.85;;;;;;;19.25;59.28;98835.09;5090418;28;20054;-31
2022/04/10 10:19:36;;;;;;;17.88;7.30;;;;;;;19.87;57.00;98834.41;5108596;28;20032;-30
2022/04/10 10:22:03;;;;;;;17.17;7.13;;;;;;;20.01;55.98;98823.50;5090205;28;20040;-29
2022/04/10 10:24:44;;;;;;;18.40;8.03;;;;;;;19.84;55.79;98807.19;5107706;28;20402;-29
2022/04/10 10:27:56;;;;;;;15.63;7.85;;;;;;;19.54;56.63;98814.94;5108335;28;20035;-32
2022/04/10 10:30:47;;;;;;;16.77;7.85;;;;;;;19.47;57.90;98796.47;5102803;28;20043;-32
2022/04/10 10:33:24;;;;;;;16.40;8.75;;;;;;;19.39;59.37;98802.63;5092280;28;20088;-29
2022/04/10 10:35:57;;;;;;;20.85;10.10;;;;;;;18.95;58.58;98792.56;5089907;28;20056;-28
2022/04/10 10:38:30;;;;;;;13.65;7.78;;;;;;;19.32;59.00;98813.03;5089342;28;20023;-29
2022/04/10 10:41:17;;;;;;;19.63;8.85;;;;;;;19.02;60.48;98814.56;5089591;28;20118;-31
2022/04/10 10:43:43;;;;;;;;;;;;;;;18.90;60.99;98806.19;5108582;28;20031;-30
2022/04/10 10:46:24;;;;;;;18.63;8.82;;;;;;;18.57;62.00;98792.81;5089470;28;19916;-28
2022/04/10 10:49:20;;;;;;;15.90;9.20;;;;;;;18.69;61.37;98801.22;5108147;28;20023;-29
2022/04/10 10:51:47;;;;;;;21.40;8.98;;;;;;;18.91;60.98;98792.38;5107552;28;20055;-32
2022/04/10 10:54:34;;;;;;;14.77;8.20;;;;;;;19.19;59.65;98795.78;5107730;28;20027;-28
2022/04/10 10:57:28;;;;;;;16.05;8.60;;;;;;;19.14;59.47;98787.78;5089547;28;20138;-29
2022/04/10 11:00:10;;;;;;;16.80;8.60;;;;;;;19.51;59.54;98783.09;5089236;28;20042;-29
2022/04/10 11:02:37;;;;;;;15.40;8.63;;;;;;;20.07;56.90;98789.78;5107833;28;20100;-28
2022/04/10 11:05:07;;;;;;;22.08;10.82;;;;;;;20.25;57.38;98779.81;5089189;28;20693;-32
2022/04/10 11:07:39;;;;;;;19.85;9.07;;;;;;;19.92;57.00;98782.09;5089205;28;20035;-31
2022/04/10 11:10:10;;;;;;;15.80;9.23;;;;;;;19.66;57.44;98780.00;5089081;28;20104;-29
2022/04/10 11:12:47;;;;;;;14.43;7.97;;;;;;;19.20;58.65;98772.25;5089085;28;20423;-32
2022/04/10 11:15:24;;;;;;;17.60;8.93;;;;;;;19.20;58.84;98764.94;5089442;28;20019;-30
2022/04/10 11:17:51;;;;;;;18.65;8.05;;;;;;;19.38;58.04;98763.16;5107779;28;20198;-31
2022/04/10 11:20:22;;;;;;;16.92;8.65;;;;;;;19.60;57.90;98756.91;5088796;28;20407;-29
2022/04/10 11:22:53;;;;;;;17.40;8.02;;;;;;;19.48;58.35;98767.50;5088973;28;20031;-31
2022/04/10 11:25:30;;;;;;;16.45;8.05;;;;;;;19.57;57.58;98749.41;5088728;28;20023;-30
2022/04/10 11:28:02;;;;;;;15.27;7.47;;;;;;;19.48;57.89;98754.78;5089247;28;20027;-29
2022/04/10 11:30:39;;;;;;;21.10;9.43;;;;;;;19.58;57.92;98767.25;5089014;28;20020;-31
2022/04/10 11:33:07;;;;;;;17.98;8.52;;;;;;;19.52;58.13;98763.09;5089050;28;20042;-34
2022/04/10 11:35:34;;;;;;;16.58;9.02;;;;;;;19.74;58.21;98764.97;5088425;28;20047;-31